createdAt,value
2022-09-12T00:02:05.738Z,1.80
2022-09-12T00:07:12.900Z,1.55
2022-09-12T00:12:18.695Z,1.63
2022-09-12T00:17:24.512Z,1.48
2022-09-12T00:22:31.695Z,1.80
2022-09-12T00:27:37.613Z,1.60
2022-09-12T00:32:43.506Z,2.03
2022-09-12T00:37:50.664Z,1.45
2022-09-12T00:42:56.398Z,1.38
2022-09-12T00:48:05.712Z,1.50
2022-09-12T00:53:13.135Z,1.92
2022-09-12T00:58:24.850Z,1.92
2022-09-12T01:03:30.876Z,1.65
2022-09-12T01:08:38.787Z,1.70
2022-09-12T01:13:45.792Z,1.77
2022-09-12T01:19:19.350Z,1.80
2022-09-12T01:25:02.056Z,1.70
2022-09-12T01:30:42.694Z,1.67
2022-09-12T01:36:03.213Z,2.13
2022-09-12T01:41:22.078Z,1.52
2022-09-12T01:46:37.411Z,1.95
2022-09-12T01:51:48.662Z,1.80
2022-09-12T01:56:59.839Z,2.17
2022-09-12T02:02:11.509Z,1.85
2022-09-12T02:07:22.136Z,2.10
2022-09-12T02:12:35.749Z,2.08
2022-09-12T02:17:48.433Z,2.20
2022-09-12T02:22:55.969Z,1.77
2022-09-12T02:28:08.130Z,2.28
2022-09-12T02:33:26.912Z,2.35
2022-09-12T02:38:40.588Z,2.15
2022-09-12T02:43:46.436Z,1.95
2022-09-12T02:48:53.698Z,2.10
2022-09-12T02:54:00.774Z,1.90
2022-09-12T02:59:11.301Z,1.95
2022-09-12T03:04:48.764Z,2.33
2022-09-12T03:10:08.138Z,1.92
2022-09-12T03:15:35.837Z,2.00
2022-09-12T03:20:55.005Z,1.85
2022-09-12T03:26:07.542Z,2.00
2022-09-12T03:31:18.902Z,2.67
2022-09-12T03:36:29.348Z,1.90
2022-09-12T03:41:35.102Z,2.05
2022-09-12T03:46:40.829Z,1.65
2022-09-12T03:51:48.261Z,1.67
2022-09-12T03:56:55.092Z,2.10
2022-09-12T04:02:01.011Z,2.20
2022-09-12T04:07:08.155Z,2.33
2022-09-12T04:12:14.299Z,2.00
2022-09-12T04:17:20.135Z,2.03
2022-09-12T04:22:27.808Z,1.92
2022-09-12T04:27:33.709Z,2.17
2022-09-12T04:32:39.575Z,2.05
2022-09-12T04:37:46.682Z,1.73
2022-09-12T04:42:52.337Z,1.98
2022-09-12T04:47:58.121Z,1.95
2022-09-12T04:53:05.489Z,2.25
2022-09-12T04:58:11.245Z,2.00
2022-09-12T05:03:17.006Z,2.47
2022-09-12T05:08:24.337Z,2.42
2022-09-12T05:13:30.180Z,1.90
2022-09-12T05:18:37.880Z,1.75
2022-09-12T05:23:45.808Z,2.00
2022-09-12T05:28:53.249Z,1.50
2022-09-12T05:33:59.328Z,2.00
2022-09-12T05:39:06.785Z,1.75
2022-09-12T05:44:14.948Z,1.70
2022-09-12T05:49:21.756Z,1.50
2022-09-12T05:54:31.611Z,1.40
2022-09-12T05:59:38.038Z,1.88
2022-09-12T06:04:43.858Z,1.48
2022-09-12T06:09:51.398Z,1.10
2022-09-12T06:14:57.246Z,1.50
2022-09-12T06:20:04.449Z,2.72
2022-09-12T06:25:11.885Z,1.58
2022-09-12T06:30:21.250Z,2.00
2022-09-12T06:35:29.345Z,1.58
2022-09-12T06:40:36.759Z,1.38
2022-09-12T06:45:51.353Z,1.88
2022-09-12T06:50:59.359Z,1.20
2022-09-12T06:56:09.462Z,1.58
2022-09-12T07:01:17.779Z,1.50
2022-09-12T07:06:30.062Z,1.10
2022-09-12T07:11:39.861Z,1.48
2022-09-12T07:16:45.893Z,1.73
2022-09-12T07:21:55.302Z,1.40
2022-09-12T07:27:05.865Z,1.50
2022-09-12T07:32:12.407Z,1.20
2022-09-12T07:37:18.312Z,1.40
2022-09-12T07:42:25.556Z,1.55
2022-09-12T07:47:31.655Z,1.58
2022-09-12T07:52:37.957Z,1.35
2022-09-12T07:57:45.241Z,1.50
2022-09-12T08:02:54.240Z,1.77
2022-09-12T08:08:00.716Z,1.98
2022-09-12T08:13:10.128Z,1.55
2022-09-12T08:18:16.776Z,1.40
2022-09-12T08:23:23.748Z,1.25
2022-09-12T08:28:34.333Z,1.40
2022-09-12T08:33:40.792Z,1.40
2022-09-12T08:38:48.757Z,1.48
2022-09-12T08:44:32.637Z,1.45
2022-09-12T08:49:51.442Z,1.40
2022-09-12T09:00:13.885Z,1.30
2022-09-12T09:05:26.849Z,1.65
2022-09-12T09:10:42.649Z,1.98
2022-09-12T09:16:00.585Z,2.10
2022-09-12T09:21:16.420Z,1.80
2022-09-12T09:26:28.220Z,1.60
2022-09-12T09:31:40.362Z,2.00
2022-09-12T09:36:53.195Z,2.88
2022-09-12T09:42:17.263Z,1.65
2022-09-12T09:47:24.808Z,1.60
2022-09-12T09:52:33.290Z,1.42
2022-09-12T09:57:51.505Z,1.50
2022-09-12T10:03:24.289Z,1.50
2022-09-12T10:08:32.602Z,1.50
2022-09-12T10:13:43.734Z,1.80
2022-09-12T10:18:52.747Z,1.80
2022-09-12T10:24:20.223Z,1.52
2022-09-12T10:29:29.956Z,1.33
2022-09-12T10:34:43.596Z,1.30
2022-09-12T10:39:54.814Z,1.70
2022-09-12T10:45:00.723Z,1.30
2022-09-12T10:55:38.165Z,1.58
2022-09-12T11:00:52.043Z,1.40
2022-09-12T11:06:00.240Z,1.17
2022-09-12T11:11:25.487Z,1.27
2022-09-12T11:16:43.073Z,1.52
2022-09-12T11:22:07.000Z,1.27
2022-09-12T11:27:35.409Z,0.90
2022-09-12T11:33:06.097Z,1.55
2022-09-12T11:38:47.723Z,1.17
2022-09-12T11:44:01.889Z,1.92
2022-09-12T11:49:22.652Z,1.63
2022-09-12T11:54:35.575Z,1.02
2022-09-12T11:59:50.982Z,0.90
2022-09-12T12:05:21.944Z,1.40
2022-09-12T12:10:37.213Z,1.42
2022-09-12T12:15:49.809Z,1.10
2022-09-12T12:20:58.727Z,1.40
2022-09-12T12:31:13.133Z,1.92
2022-09-12T12:36:42.720Z,1.63
2022-09-12T12:41:48.657Z,1.08
2022-09-12T12:47:19.992Z,1.05
2022-09-12T12:52:29.241Z,1.27
2022-09-12T12:57:50.405Z,1.10
2022-09-12T13:03:03.086Z,1.00
2022-09-12T13:08:13.391Z,1.27
2022-09-12T13:13:30.376Z,1.20
2022-09-12T13:18:46.313Z,1.00
2022-09-12T13:24:03.705Z,1.05
2022-09-12T13:29:20.216Z,1.02
2022-09-12T13:34:31.585Z,1.13
2022-09-12T13:39:48.143Z,1.20
2022-09-12T13:45:00.493Z,1.35
2022-09-12T13:50:15.713Z,1.60
2022-09-12T13:55:31.914Z,1.33
2022-09-12T14:00:38.251Z,1.35
2022-09-12T14:05:49.688Z,1.27
2022-09-12T14:10:55.669Z,1.50
2022-09-12T14:16:02.385Z,1.30
2022-09-12T14:21:13.577Z,1.02
2022-09-12T14:26:20.030Z,1.35
2022-09-12T14:31:30.947Z,1.00
2022-09-12T14:36:43.639Z,1.20
2022-09-12T14:41:50.533Z,1.55
2022-09-12T14:46:56.613Z,1.50
2022-09-12T14:52:07.214Z,1.38
2022-09-12T14:57:40.489Z,1.60
2022-09-12T15:02:47.610Z,1.90
2022-09-12T15:08:16.207Z,1.50
2022-09-12T15:18:30.973Z,1.77
2022-09-12T15:23:43.044Z,1.58
2022-09-12T15:28:49.481Z,1.60
2022-09-12T15:33:57.446Z,1.50
2022-09-12T15:44:14.776Z,1.58
2022-09-12T15:49:20.859Z,1.40
2022-09-12T15:54:28.701Z,1.30
2022-09-12T15:59:34.778Z,1.45
2022-09-12T16:04:41.371Z,1.20
2022-09-12T16:09:48.768Z,1.60
2022-09-12T16:14:54.612Z,1.60
2022-09-12T16:20:00.532Z,2.53
2022-09-12T16:25:09.523Z,2.42
2022-09-12T16:30:16.756Z,1.90
2022-09-12T16:35:22.802Z,2.38
2022-09-12T16:40:31.363Z,2.72
2022-09-12T16:45:37.486Z,2.38
2022-09-12T16:50:43.492Z,3.42
2022-09-12T16:55:52.804Z,2.83
2022-09-12T17:01:03.721Z,2.85
2022-09-12T17:06:12.394Z,3.15
2022-09-12T17:11:22.611Z,2.60
2022-09-12T17:16:29.479Z,3.38
2022-09-12T17:21:36.753Z,2.35
2022-09-12T17:26:44.743Z,2.58
2022-09-12T17:31:51.186Z,2.80
2022-09-12T17:36:57.130Z,2.95
2022-09-12T17:42:04.932Z,2.50
2022-09-12T17:47:11.151Z,3.45
2022-09-12T17:52:18.885Z,2.33
2022-09-12T17:57:27.015Z,3.33
2022-09-12T18:02:33.554Z,2.63
2022-09-12T18:07:44.095Z,3.97
2022-09-12T18:12:52.515Z,3.35
2022-09-12T18:17:59.059Z,3.65
2022-09-12T18:23:05.720Z,4.10
2022-09-12T18:28:13.780Z,3.63
2022-09-12T18:33:24.080Z,3.80
2022-09-12T18:38:32.147Z,4.18
2022-09-12T18:43:40.881Z,3.50
2022-09-12T18:48:48.890Z,3.70
2022-09-12T18:53:57.739Z,4.30
2022-09-12T18:59:07.130Z,3.90
2022-09-12T19:04:17.237Z,3.58
2022-09-12T19:09:23.821Z,3.10
2022-09-12T19:14:31.920Z,4.10
2022-09-12T19:19:40.610Z,4.07
2022-09-12T19:24:47.570Z,3.53
2022-09-12T19:29:55.560Z,4.20
2022-09-12T19:35:02.311Z,3.43
2022-09-12T19:40:10.649Z,3.63
2022-09-12T19:45:18.906Z,3.70
2022-09-12T19:50:25.883Z,3.60
2022-09-12T19:55:32.436Z,3.42
2022-09-12T20:00:40.302Z,3.53
2022-09-12T20:05:46.931Z,3.80
2022-09-12T20:10:56.936Z,3.88
2022-09-12T20:16:10.714Z,3.05
2022-09-12T20:21:18.233Z,3.03
2022-09-12T20:26:25.231Z,2.88
2022-09-12T20:31:33.651Z,3.35
2022-09-12T20:36:39.790Z,3.83
2022-09-12T20:41:46.659Z,3.28
2022-09-12T20:46:55.313Z,3.40
2022-09-12T20:57:07.279Z,4.13
2022-09-12T21:02:16.920Z,2.90
2022-09-12T21:07:22.879Z,3.30
2022-09-12T21:12:29.835Z,4.10
2022-09-12T21:17:37.200Z,3.92
2022-09-12T21:22:43.229Z,3.33
2022-09-12T21:27:49.072Z,2.55
2022-09-12T21:32:56.235Z,2.63
2022-09-12T21:38:01.954Z,2.30
2022-09-12T21:43:12.390Z,2.25
2022-09-12T21:48:20.415Z,3.35
2022-09-12T21:53:26.889Z,2.20
2022-09-12T21:58:33.459Z,2.42
2022-09-12T22:03:43.322Z,3.08
2022-09-12T22:08:49.304Z,3.20
2022-09-12T22:13:55.128Z,2.03
2022-09-12T22:19:02.392Z,2.53
2022-09-12T22:24:25.910Z,2.08
2022-09-12T22:29:32.504Z,1.80
2022-09-12T22:34:39.945Z,2.10
2022-09-12T22:39:46.181Z,1.80
2022-09-12T22:44:52.028Z,1.77
2022-09-12T22:49:59.578Z,1.73
2022-09-12T22:55:06.260Z,1.70
2022-09-12T23:00:14.258Z,1.80
2022-09-12T23:05:21.439Z,2.15
2022-09-12T23:10:27.900Z,2.03
2022-09-12T23:15:33.653Z,3.22
2022-09-12T23:20:40.841Z,3.70
2022-09-12T23:25:46.545Z,3.38
2022-09-12T23:30:57.079Z,4.05
2022-09-12T23:36:07.143Z,6.07
2022-09-12T23:41:14.446Z,6.70
2022-09-12T23:46:21.315Z,4.60
2022-09-12T23:51:28.563Z,4.43
2022-09-12T23:56:34.471Z,3.08
